Tampa, Florida
Current Conditions -  °F | °C
As of 3:53 AM on Friday 31 Oct 2014 (Local Time) from KTPA Reporting Station
Overcast Overcast  
Wind Chill: 21°   Ceiling: 3500
Heat Index: 21°   Visibility: 10mi
Dew Point: 19°   Wind: 6mph
Humidity: 87%   Direction: 360°N
Pressure: 29.86"   Gusts: NA
Location:  27.95°N, 82.46°W
Report Text: KTPA 310753Z 36005KT 10SM SCT014 BKN035 BKN090 OVC140 21/19 A2986 RMK AO2 SLP110 T02110189
Loading
Personal Weather Stations






























Interactive Weather Map New forecast layout! Learn more

10-Day Weather Forecast

Advertisements
Track Severe Weather on mobile